NOZ1125 VTBD-WBKK
Flight info
| Callsign | NOZ1125 |
|---|---|
| Flight time | 2h 34m |
| Altitude | 37000 |
| Route | GORSI3C GORSI N506 ELMOP R468 SAPEN/K0833F370 R468 TSH M768 MOXON/N0449F370 M768 ASISU Y446 ADLEX ADLEX1B |
| Aircraft | B738/M-SDE2E3FGHIRWXY/LB1 |
Departure
| Time | 2026-04-27 23:05 |
|---|---|
| Airport | Don Mueang International Airport (VTBD) |
Arrival
| Time | 2026-04-28 01:39 |
|---|---|
| Airport | Kota Kinabalu International Airport (WBKK) |
| Time | Latitude | Longitude | Altitude | Speed | Heading |
|---|---|---|---|---|---|
| 2026-04-27 22:27 | 13.92101 | 100.60504 | 17 ft | 0 kts | 208° |
| 2026-04-27 22:53 | 13.92111 | 100.60510 | 16 ft | 3 kts | 206° |
| 2026-04-27 22:53 | 13.92132 | 100.60520 | 18 ft | 3 kts | 199° |
| 2026-04-27 22:54 | 13.92154 | 100.60525 | 16 ft | 3 kts | 181° |
| 2026-04-27 22:54 | 13.92173 | 100.60522 | 20 ft | 3 kts | 134° |
| 2026-04-27 22:54 | 13.92179 | 100.60513 | 19 ft | 1 kts | 104° |
| 2026-04-27 22:54 | 13.92179 | 100.60511 | 18 ft | 0 kts | 104° |
| 2026-04-27 22:57 | 13.92176 | 100.60524 | 20 ft | 5 kts | 103° |
| 2026-04-27 22:57 | 13.92155 | 100.60578 | 19 ft | 9 kts | 120° |
| 2026-04-27 22:58 | 13.92125 | 100.60633 | 18 ft | 9 kts | 118° |
| 2026-04-27 22:58 | 13.92133 | 100.60684 | 17 ft | 8 kts | 35° |
| 2026-04-27 22:58 | 13.92184 | 100.60714 | 17 ft | 8 kts | 28° |
| 2026-04-27 22:58 | 13.92233 | 100.60741 | 17 ft | 8 kts | 28° |
| 2026-04-27 22:59 | 13.92289 | 100.60773 | 17 ft | 9 kts | 28° |
| 2026-04-27 22:59 | 13.92347 | 100.60804 | 17 ft | 9 kts | 28° |
| 2026-04-27 22:59 | 13.92409 | 100.60840 | 17 ft | 13 kts | 29° |
| 2026-04-27 22:59 | 13.92489 | 100.60885 | 19 ft | 13 kts | 28° |
| 2026-04-27 23:00 | 13.92643 | 100.60970 | 17 ft | 11 kts | 28° |
| 2026-04-27 23:00 | 13.92688 | 100.61014 | 17 ft | 9 kts | 90° |
| 2026-04-27 23:00 | 13.92660 | 100.61074 | 16 ft | 9 kts | 118° |
| 2026-04-27 23:01 | 13.92631 | 100.61131 | 17 ft | 9 kts | 118° |
| 2026-04-27 23:01 | 13.92601 | 100.61186 | 17 ft | 9 kts | 118° |
| 2026-04-27 23:01 | 13.92571 | 100.61240 | 16 ft | 8 kts | 119° |
| 2026-04-27 23:01 | 13.92544 | 100.61292 | 15 ft | 8 kts | 118° |
| 2026-04-27 23:02 | 13.92516 | 100.61343 | 18 ft | 8 kts | 119° |
| 2026-04-27 23:02 | 13.92484 | 100.61402 | 15 ft | 10 kts | 119° |
| 2026-04-27 23:02 | 13.92452 | 100.61461 | 15 ft | 8 kts | 118° |
| 2026-04-27 23:02 | 13.92426 | 100.61511 | 13 ft | 8 kts | 117° |
| 2026-04-27 23:03 | 13.92388 | 100.61519 | 13 ft | 6 kts | 209° |
| 2026-04-27 23:03 | 13.92355 | 100.61499 | 13 ft | 6 kts | 208° |
| 2026-04-27 23:03 | 13.92321 | 100.61481 | 14 ft | 5 kts | 208° |
| 2026-04-27 23:03 | 13.92274 | 100.61453 | 14 ft | 19 kts | 209° |
| 2026-04-27 23:04 | 13.91974 | 100.61287 | 17 ft | 78 kts | 208° |
| 2026-04-27 23:04 | 13.91340 | 100.60929 | 16 ft | 128 kts | 208° |
| 2026-04-27 23:04 | 13.90433 | 100.60430 | 90 ft | 159 kts | 208° |
| 2026-04-27 23:04 | 13.89480 | 100.59860 | 569 ft | 160 kts | 210° |
| 2026-04-27 23:05 | 13.88550 | 100.59163 | 877 ft | 175 kts | 222° |
| 2026-04-27 23:05 | 13.87724 | 100.58129 | 1056 ft | 198 kts | 235° |
| 2026-04-27 23:05 | 13.86972 | 100.56857 | 1250 ft | 216 kts | 237° |
| 2026-04-27 23:05 | 13.86195 | 100.55503 | 1447 ft | 229 kts | 237° |
| 2026-04-27 23:06 | 13.85345 | 100.54030 | 1609 ft | 248 kts | 237° |
| 2026-04-27 23:06 | 13.84451 | 100.52495 | 2130 ft | 251 kts | 237° |
| 2026-04-27 23:06 | 13.83544 | 100.50950 | 2731 ft | 252 kts | 237° |
| 2026-04-27 23:06 | 13.82623 | 100.49394 | 3273 ft | 255 kts | 237° |
| 2026-04-27 23:07 | 13.81692 | 100.47830 | 3830 ft | 258 kts | 237° |
| 2026-04-27 23:07 | 13.81066 | 100.46782 | 4173 ft | 260 kts | 237° |
| 2026-04-27 23:07 | 13.80115 | 100.45190 | 4714 ft | 263 kts | 237° |
| 2026-04-27 23:07 | 13.79133 | 100.43587 | 5228 ft | 266 kts | 232° |
| 2026-04-27 23:08 | 13.77144 | 100.42155 | 5883 ft | 271 kts | 197° |
| 2026-04-27 23:08 | 13.75880 | 100.41941 | 6212 ft | 275 kts | 181° |
| 2026-04-27 23:08 | 13.73957 | 100.42077 | 6734 ft | 279 kts | 175° |
| 2026-04-27 23:08 | 13.72041 | 100.42284 | 7254 ft | 282 kts | 175° |
| 2026-04-27 23:09 | 13.70080 | 100.42488 | 7799 ft | 284 kts | 175° |
| 2026-04-27 23:09 | 13.68101 | 100.42683 | 8363 ft | 287 kts | 175° |
| 2026-04-27 23:09 | 13.66111 | 100.42965 | 8898 ft | 292 kts | 163° |
| 2026-04-27 23:09 | 13.64365 | 100.44028 | 9439 ft | 297 kts | 134° |
| 2026-04-27 23:10 | 13.63271 | 100.45818 | 10006 ft | 300 kts | 109° |
| 2026-04-27 23:10 | 13.62781 | 100.47944 | 10321 ft | 314 kts | 100° |
| 2026-04-27 23:10 | 13.62414 | 100.50223 | 10459 ft | 332 kts | 99° |
| 2026-04-27 23:10 | 13.62031 | 100.52612 | 10754 ft | 343 kts | 100° |
| 2026-04-27 23:11 | 13.61616 | 100.55054 | 11220 ft | 348 kts | 100° |
| 2026-04-27 23:11 | 13.61184 | 100.57517 | 11775 ft | 350 kts | 101° |
| 2026-04-27 23:11 | 13.60745 | 100.59986 | 12344 ft | 352 kts | 100° |
| 2026-04-27 23:11 | 13.60301 | 100.62477 | 12889 ft | 356 kts | 100° |
| 2026-04-27 23:12 | 13.59857 | 100.64961 | 13418 ft | 360 kts | 100° |
| 2026-04-27 23:12 | 13.59404 | 100.67498 | 13964 ft | 362 kts | 100° |
| 2026-04-27 23:12 | 13.58948 | 100.70053 | 14473 ft | 365 kts | 100° |
| 2026-04-27 23:12 | 13.58487 | 100.72633 | 14944 ft | 369 kts | 100° |
| 2026-04-27 23:13 | 13.58022 | 100.75237 | 15470 ft | 371 kts | 100° |
| 2026-04-27 23:13 | 13.57554 | 100.77854 | 15979 ft | 373 kts | 100° |
| 2026-04-27 23:13 | 13.57083 | 100.80490 | 16454 ft | 377 kts | 100° |
| 2026-04-27 23:13 | 13.56606 | 100.83153 | 16939 ft | 380 kts | 100° |
| 2026-04-27 23:14 | 13.56125 | 100.85839 | 17432 ft | 383 kts | 100° |
| 2026-04-27 23:14 | 13.55641 | 100.88540 | 17904 ft | 386 kts | 100° |
| 2026-04-27 23:14 | 13.55159 | 100.91230 | 18329 ft | 389 kts | 100° |
| 2026-04-27 23:14 | 13.54667 | 100.93975 | 18731 ft | 392 kts | 100° |
| 2026-04-27 23:15 | 13.54170 | 100.96744 | 19126 ft | 395 kts | 100° |
| 2026-04-27 23:15 | 13.53670 | 100.99532 | 19510 ft | 398 kts | 100° |
| 2026-04-27 23:15 | 13.53164 | 101.02343 | 19903 ft | 401 kts | 100° |
| 2026-04-27 23:15 | 13.52664 | 101.05172 | 20288 ft | 404 kts | 98° |
| 2026-04-27 23:16 | 13.52393 | 101.08047 | 20660 ft | 406 kts | 92° |
| 2026-04-27 23:16 | 13.52299 | 101.10959 | 21043 ft | 409 kts | 91° |
| 2026-04-27 23:16 | 13.52239 | 101.13891 | 21414 ft | 412 kts | 90° |
| 2026-04-27 23:16 | 13.52173 | 101.16806 | 21771 ft | 414 kts | 91° |
| 2026-04-27 23:17 | 13.52089 | 101.19780 | 22128 ft | 417 kts | 91° |
| 2026-04-27 23:17 | 13.51990 | 101.22774 | 22487 ft | 420 kts | 91° |
| 2026-04-27 23:17 | 13.51883 | 101.25781 | 22836 ft | 423 kts | 91° |
| 2026-04-27 23:17 | 13.51772 | 101.28814 | 23182 ft | 425 kts | 91° |
| 2026-04-27 23:18 | 13.51660 | 101.31862 | 23514 ft | 428 kts | 92° |
| 2026-04-27 23:18 | 13.51317 | 101.34911 | 23765 ft | 431 kts | 102° |
| 2026-04-27 23:18 | 13.50485 | 101.37881 | 24051 ft | 434 kts | 111° |
| 2026-04-27 23:18 | 13.49217 | 101.40666 | 24335 ft | 435 kts | 117° |
| 2026-04-27 23:19 | 13.47803 | 101.43422 | 24610 ft | 438 kts | 118° |
| 2026-04-27 23:19 | 13.46365 | 101.46193 | 24876 ft | 441 kts | 118° |
| 2026-04-27 23:19 | 13.44930 | 101.48989 | 25138 ft | 443 kts | 117° |
| 2026-04-27 23:19 | 13.43509 | 101.51803 | 25408 ft | 445 kts | 117° |
| 2026-04-27 23:20 | 13.42083 | 101.54654 | 25672 ft | 447 kts | 117° |
| 2026-04-27 23:20 | 13.40678 | 101.57466 | 25934 ft | 449 kts | 117° |
| 2026-04-27 23:20 | 13.39257 | 101.60335 | 26188 ft | 452 kts | 116° |
| 2026-04-27 23:20 | 13.37849 | 101.63239 | 26445 ft | 454 kts | 116° |
| 2026-04-27 23:21 | 13.36452 | 101.66149 | 26698 ft | 456 kts | 116° |
| 2026-04-27 23:21 | 13.35049 | 101.69077 | 26949 ft | 458 kts | 116° |
| 2026-04-27 23:21 | 13.33638 | 101.72017 | 27192 ft | 460 kts | 116° |
| 2026-04-27 23:21 | 13.32215 | 101.74971 | 27437 ft | 462 kts | 116° |
| 2026-04-27 23:22 | 13.30787 | 101.77933 | 27674 ft | 464 kts | 116° |
| 2026-04-27 23:22 | 13.29348 | 101.80912 | 27905 ft | 466 kts | 116° |
| 2026-04-27 23:22 | 13.27904 | 101.83899 | 28138 ft | 468 kts | 116° |
| 2026-04-27 23:22 | 13.26450 | 101.86906 | 28368 ft | 470 kts | 116° |
| 2026-04-27 23:23 | 13.24993 | 101.89919 | 28597 ft | 472 kts | 116° |
| 2026-04-27 23:23 | 13.23527 | 101.92949 | 28813 ft | 474 kts | 116° |
| 2026-04-27 23:23 | 13.22057 | 101.95985 | 29025 ft | 476 kts | 116° |
| 2026-04-27 23:23 | 13.20579 | 101.99037 | 29234 ft | 478 kts | 116° |
| 2026-04-27 23:24 | 13.19099 | 102.02092 | 29502 ft | 479 kts | 116° |
| 2026-04-27 23:24 | 13.17627 | 102.05131 | 29724 ft | 480 kts | 116° |
| 2026-04-27 23:24 | 13.16136 | 102.08208 | 29924 ft | 482 kts | 116° |
| 2026-04-27 23:24 | 13.14639 | 102.11296 | 30098 ft | 483 kts | 116° |
| 2026-04-27 23:25 | 13.13138 | 102.14392 | 30271 ft | 485 kts | 116° |
| 2026-04-27 23:25 | 13.11631 | 102.17498 | 30451 ft | 486 kts | 116° |
| 2026-04-27 23:25 | 13.10123 | 102.20607 | 30616 ft | 487 kts | 116° |
| 2026-04-27 23:25 | 13.08610 | 102.23724 | 30790 ft | 489 kts | 116° |
| 2026-04-27 23:26 | 13.07095 | 102.26845 | 30963 ft | 489 kts | 116° |
| 2026-04-27 23:26 | 13.05593 | 102.29935 | 31154 ft | 490 kts | 116° |
| 2026-04-27 23:26 | 13.04074 | 102.33063 | 31331 ft | 491 kts | 116° |
| 2026-04-27 23:26 | 13.02550 | 102.36197 | 31532 ft | 491 kts | 116° |
| 2026-04-27 23:27 | 13.01027 | 102.39330 | 31786 ft | 489 kts | 116° |
| 2026-04-27 23:27 | 12.99510 | 102.42450 | 32066 ft | 488 kts | 116° |
| 2026-04-27 23:27 | 12.97998 | 102.45559 | 32326 ft | 487 kts | 117° |
| 2026-04-27 23:27 | 12.96485 | 102.48665 | 32542 ft | 487 kts | 117° |
| 2026-04-27 23:28 | 12.94882 | 102.51715 | 32755 ft | 486 kts | 121° |
| 2026-04-27 23:28 | 12.93149 | 102.54699 | 32979 ft | 486 kts | 122° |
| 2026-04-27 23:28 | 12.91376 | 102.57640 | 33241 ft | 484 kts | 122° |
| 2026-04-27 23:28 | 12.89593 | 102.60566 | 33497 ft | 484 kts | 122° |
| 2026-04-27 23:29 | 12.87834 | 102.63457 | 33700 ft | 484 kts | 122° |
| 2026-04-27 23:29 | 12.86064 | 102.66387 | 33896 ft | 484 kts | 122° |
| 2026-04-27 23:29 | 12.84303 | 102.69320 | 34095 ft | 483 kts | 122° |
| 2026-04-27 23:29 | 12.82552 | 102.72250 | 34307 ft | 482 kts | 122° |
| 2026-04-27 23:30 | 12.80806 | 102.75180 | 34538 ft | 480 kts | 122° |
| 2026-04-27 23:30 | 12.79075 | 102.78088 | 34811 ft | 477 kts | 122° |
| 2026-04-27 23:30 | 12.77347 | 102.80990 | 35065 ft | 474 kts | 122° |
| 2026-04-27 23:30 | 12.75625 | 102.83881 | 35249 ft | 474 kts | 122° |
| 2026-04-27 23:31 | 12.73906 | 102.86765 | 35389 ft | 475 kts | 122° |
| 2026-04-27 23:31 | 12.72205 | 102.89616 | 35546 ft | 474 kts | 122° |
| 2026-04-27 23:31 | 12.70478 | 102.92510 | 35742 ft | 473 kts | 122° |
| 2026-04-27 23:31 | 12.68759 | 102.95390 | 35932 ft | 472 kts | 122° |
| 2026-04-27 23:32 | 12.67046 | 102.98259 | 36087 ft | 472 kts | 122° |
| 2026-04-27 23:32 | 12.65333 | 103.01126 | 36230 ft | 472 kts | 122° |
| 2026-04-27 23:32 | 12.63619 | 103.03994 | 36400 ft | 471 kts | 122° |
| 2026-04-27 23:32 | 12.61908 | 103.06857 | 36571 ft | 470 kts | 122° |
| 2026-04-27 23:33 | 12.60220 | 103.09681 | 36720 ft | 470 kts | 122° |
| 2026-04-27 23:33 | 12.58514 | 103.12532 | 36854 ft | 470 kts | 122° |
| 2026-04-27 23:33 | 12.55086 | 103.18260 | 36885 ft | 471 kts | 122° |
| 2026-04-27 23:34 | 12.51674 | 103.23959 | 36885 ft | 467 kts | 122° |
| 2026-04-27 23:34 | 12.48286 | 103.29616 | 36880 ft | 464 kts | 122° |
| 2026-04-27 23:35 | 12.44918 | 103.35235 | 36887 ft | 462 kts | 122° |
| 2026-04-27 23:35 | 12.41561 | 103.40830 | 36893 ft | 461 kts | 122° |
| 2026-04-27 23:36 | 12.38229 | 103.46381 | 36899 ft | 461 kts | 122° |
| 2026-04-27 23:36 | 12.34866 | 103.51982 | 36897 ft | 462 kts | 122° |
| 2026-04-27 23:37 | 12.31495 | 103.57593 | 36893 ft | 463 kts | 122° |
| 2026-04-27 23:37 | 12.28136 | 103.63179 | 36895 ft | 464 kts | 122° |
| 2026-04-27 23:38 | 12.24738 | 103.68829 | 36905 ft | 466 kts | 122° |
| 2026-04-27 23:38 | 12.21333 | 103.74476 | 36904 ft | 467 kts | 122° |
| 2026-04-27 23:39 | 12.17899 | 103.80139 | 36895 ft | 469 kts | 122° |
| 2026-04-27 23:39 | 12.14484 | 103.85769 | 36896 ft | 470 kts | 122° |
| 2026-04-27 23:40 | 12.11039 | 103.91450 | 36904 ft | 470 kts | 122° |
| 2026-04-27 23:40 | 12.07590 | 103.97135 | 36906 ft | 470 kts | 122° |
| 2026-04-27 23:41 | 12.04142 | 104.02816 | 36902 ft | 469 kts | 122° |
| 2026-04-27 23:41 | 12.00726 | 104.08441 | 36895 ft | 468 kts | 122° |
| 2026-04-27 23:42 | 11.97295 | 104.14086 | 36891 ft | 467 kts | 122° |
| 2026-04-27 23:42 | 11.93880 | 104.19703 | 36901 ft | 465 kts | 122° |
| 2026-04-27 23:43 | 11.90469 | 104.25311 | 36898 ft | 463 kts | 122° |
| 2026-04-27 23:43 | 11.87070 | 104.30891 | 36895 ft | 462 kts | 122° |
| 2026-04-27 23:44 | 11.83677 | 104.36458 | 36899 ft | 461 kts | 122° |
| 2026-04-27 23:44 | 11.80293 | 104.42007 | 36896 ft | 460 kts | 122° |
| 2026-04-27 23:45 | 11.76906 | 104.47560 | 36897 ft | 460 kts | 122° |
| 2026-04-27 23:45 | 11.73538 | 104.53080 | 36893 ft | 461 kts | 122° |
| 2026-04-27 23:46 | 11.70143 | 104.58638 | 36895 ft | 461 kts | 122° |
| 2026-04-27 23:46 | 11.66745 | 104.64201 | 36894 ft | 462 kts | 122° |
| 2026-04-27 23:47 | 11.63332 | 104.69784 | 36892 ft | 463 kts | 123° |
| 2026-04-27 23:47 | 11.59916 | 104.75371 | 36895 ft | 464 kts | 123° |
| 2026-04-27 23:48 | 11.56514 | 104.80931 | 36895 ft | 465 kts | 123° |
| 2026-04-27 23:48 | 11.53345 | 104.86694 | 36887 ft | 467 kts | 113° |
| 2026-04-27 23:49 | 11.50970 | 104.92870 | 36899 ft | 468 kts | 111° |
| 2026-04-27 23:49 | 11.48649 | 104.99075 | 36895 ft | 468 kts | 111° |
| 2026-04-27 23:50 | 11.46280 | 105.05265 | 36894 ft | 469 kts | 112° |
| 2026-04-27 23:50 | 11.43893 | 105.11411 | 36898 ft | 469 kts | 112° |
| 2026-04-27 23:51 | 11.41482 | 105.17590 | 36901 ft | 468 kts | 112° |
| 2026-04-27 23:51 | 11.39074 | 105.23763 | 36900 ft | 468 kts | 112° |
| 2026-04-27 23:52 | 11.36669 | 105.29925 | 36900 ft | 467 kts | 112° |
| 2026-04-27 23:52 | 11.34280 | 105.36045 | 36899 ft | 466 kts | 112° |
| 2026-04-27 23:53 | 11.31885 | 105.42174 | 36896 ft | 465 kts | 112° |
| 2026-04-27 23:53 | 11.29485 | 105.48315 | 36897 ft | 465 kts | 112° |
| 2026-04-27 23:54 | 11.27108 | 105.54392 | 36897 ft | 464 kts | 112° |
| 2026-04-27 23:54 | 11.24719 | 105.60493 | 36899 ft | 463 kts | 112° |
| 2026-04-27 23:55 | 11.22327 | 105.66599 | 36895 ft | 463 kts | 112° |
| 2026-04-27 23:55 | 11.19936 | 105.72700 | 36901 ft | 463 kts | 112° |
| 2026-04-27 23:56 | 11.17946 | 105.77773 | 36901 ft | 464 kts | 112° |
| 2026-04-27 23:56 | 11.15547 | 105.83887 | 36897 ft | 464 kts | 112° |
| 2026-04-27 23:57 | 11.13161 | 105.89964 | 36900 ft | 465 kts | 112° |
| 2026-04-27 23:57 | 11.10753 | 105.96090 | 36900 ft | 466 kts | 112° |
| 2026-04-27 23:58 | 11.08339 | 106.02228 | 36900 ft | 467 kts | 112° |
| 2026-04-27 23:58 | 11.05934 | 106.08339 | 36901 ft | 467 kts | 112° |
| 2026-04-27 23:59 | 11.03514 | 106.14487 | 36899 ft | 468 kts | 112° |
| 2026-04-27 23:59 | 11.01069 | 106.20624 | 36897 ft | 468 kts | 114° |
| 2026-04-28 00:00 | 10.98438 | 106.26698 | 36899 ft | 468 kts | 114° |
| 2026-04-28 00:00 | 10.95802 | 106.32714 | 36902 ft | 468 kts | 114° |
| 2026-04-28 00:01 | 10.93179 | 106.38777 | 36898 ft | 468 kts | 114° |
| 2026-04-28 00:01 | 10.90559 | 106.44852 | 36890 ft | 467 kts | 114° |
| 2026-04-28 00:02 | 10.87946 | 106.50901 | 36888 ft | 467 kts | 114° |
| 2026-04-28 00:02 | 10.85336 | 106.56943 | 36886 ft | 466 kts | 114° |
| 2026-04-28 00:03 | 10.82725 | 106.62981 | 36882 ft | 466 kts | 114° |
| 2026-04-28 00:03 | 10.79360 | 106.68520 | 36895 ft | 463 kts | 128° |
| 2026-04-28 00:04 | 10.73337 | 106.76226 | 36890 ft | 463 kts | 129° |
| 2026-04-28 00:05 | 10.69349 | 106.81387 | 36886 ft | 464 kts | 128° |
| 2026-04-28 00:05 | 10.65383 | 106.86572 | 36895 ft | 464 kts | 128° |
| 2026-04-28 00:06 | 10.61449 | 106.91722 | 36902 ft | 464 kts | 128° |
| 2026-04-28 00:06 | 10.57485 | 106.96905 | 36902 ft | 464 kts | 128° |
| 2026-04-28 00:07 | 10.53516 | 107.02091 | 36904 ft | 465 kts | 128° |
| 2026-04-28 00:07 | 10.49536 | 107.07288 | 36903 ft | 465 kts | 128° |
| 2026-04-28 00:08 | 10.45604 | 107.12480 | 36900 ft | 466 kts | 128° |
| 2026-04-28 00:08 | 10.41665 | 107.17722 | 36903 ft | 466 kts | 128° |
| 2026-04-28 00:09 | 10.37719 | 107.22963 | 36904 ft | 467 kts | 128° |
| 2026-04-28 00:09 | 10.33768 | 107.28200 | 36905 ft | 467 kts | 128° |
| 2026-04-28 00:10 | 10.29835 | 107.33413 | 36906 ft | 467 kts | 128° |
| 2026-04-28 00:10 | 10.25879 | 107.38655 | 36907 ft | 467 kts | 128° |
| 2026-04-28 00:11 | 10.21923 | 107.43896 | 36905 ft | 468 kts | 128° |
| 2026-04-28 00:11 | 10.17968 | 107.49136 | 36904 ft | 467 kts | 128° |
| 2026-04-28 00:12 | 10.14012 | 107.54374 | 36903 ft | 467 kts | 128° |
| 2026-04-28 00:12 | 10.10063 | 107.59616 | 36905 ft | 467 kts | 128° |
| 2026-04-28 00:13 | 10.06121 | 107.64865 | 36907 ft | 466 kts | 128° |
| 2026-04-28 00:13 | 10.02212 | 107.70068 | 36904 ft | 466 kts | 128° |
| 2026-04-28 00:14 | 9.98284 | 107.75292 | 36908 ft | 465 kts | 128° |
| 2026-04-28 00:14 | 9.94353 | 107.80518 | 36905 ft | 465 kts | 128° |
| 2026-04-28 00:15 | 9.90430 | 107.85730 | 36910 ft | 464 kts | 128° |
| 2026-04-28 00:15 | 9.86536 | 107.90902 | 36912 ft | 464 kts | 128° |
| 2026-04-28 00:16 | 9.82614 | 107.96108 | 36909 ft | 464 kts | 128° |
| 2026-04-28 00:16 | 9.78695 | 108.01307 | 36910 ft | 463 kts | 128° |
| 2026-04-28 00:17 | 9.74780 | 108.06499 | 36908 ft | 463 kts | 128° |
| 2026-04-28 00:17 | 9.70864 | 108.11691 | 36907 ft | 463 kts | 128° |
| 2026-04-28 00:18 | 9.66948 | 108.16880 | 36910 ft | 463 kts | 128° |
| 2026-04-28 00:18 | 9.63030 | 108.22070 | 36909 ft | 464 kts | 128° |
| 2026-04-28 00:19 | 9.59109 | 108.27262 | 36909 ft | 464 kts | 128° |
| 2026-04-28 00:19 | 9.55187 | 108.32453 | 36911 ft | 464 kts | 128° |
| 2026-04-28 00:20 | 9.51258 | 108.37651 | 36910 ft | 464 kts | 128° |
| 2026-04-28 00:20 | 9.47353 | 108.42816 | 36915 ft | 464 kts | 128° |
| 2026-04-28 00:21 | 9.43500 | 108.48078 | 36909 ft | 465 kts | 125° |
| 2026-04-28 00:21 | 9.39793 | 108.53455 | 36910 ft | 465 kts | 125° |
| 2026-04-28 00:22 | 9.36096 | 108.58828 | 36910 ft | 465 kts | 125° |
| 2026-04-28 00:22 | 9.32379 | 108.64183 | 36908 ft | 465 kts | 125° |
| 2026-04-28 00:23 | 9.28672 | 108.69497 | 36912 ft | 465 kts | 126° |
| 2026-04-28 00:23 | 9.24941 | 108.74841 | 36911 ft | 464 kts | 126° |
| 2026-04-28 00:24 | 9.21215 | 108.80176 | 36908 ft | 464 kts | 126° |
| 2026-04-28 00:24 | 9.17485 | 108.85515 | 36911 ft | 464 kts | 126° |
| 2026-04-28 00:25 | 9.13759 | 108.90847 | 36905 ft | 463 kts | 126° |
| 2026-04-28 00:25 | 9.10040 | 108.96168 | 36907 ft | 463 kts | 126° |
| 2026-04-28 00:26 | 9.06325 | 109.01480 | 36905 ft | 462 kts | 126° |
| 2026-04-28 00:26 | 9.02607 | 109.06793 | 36907 ft | 462 kts | 126° |
| 2026-04-28 00:27 | 8.98894 | 109.12098 | 36908 ft | 462 kts | 126° |
| 2026-04-28 00:27 | 8.95177 | 109.17406 | 36906 ft | 462 kts | 126° |
| 2026-04-28 00:28 | 8.91492 | 109.22668 | 36911 ft | 461 kts | 126° |
| 2026-04-28 00:28 | 8.87779 | 109.27967 | 36903 ft | 461 kts | 126° |
| 2026-04-28 00:29 | 8.84066 | 109.33264 | 36911 ft | 461 kts | 126° |
| 2026-04-28 00:29 | 8.80350 | 109.38555 | 36910 ft | 461 kts | 126° |
| 2026-04-28 00:30 | 8.76638 | 109.43817 | 36909 ft | 461 kts | 126° |
| 2026-04-28 00:30 | 8.72912 | 109.49099 | 36913 ft | 461 kts | 126° |
| 2026-04-28 00:31 | 8.69183 | 109.54386 | 36906 ft | 461 kts | 126° |
| 2026-04-28 00:31 | 8.65460 | 109.59663 | 36908 ft | 461 kts | 126° |
| 2026-04-28 00:32 | 8.61730 | 109.64949 | 36908 ft | 461 kts | 126° |
| 2026-04-28 00:32 | 8.58025 | 109.70197 | 36911 ft | 461 kts | 126° |
| 2026-04-28 00:33 | 8.54298 | 109.75474 | 36915 ft | 461 kts | 126° |
| 2026-04-28 00:33 | 8.50577 | 109.80741 | 36905 ft | 461 kts | 126° |
| 2026-04-28 00:34 | 8.46851 | 109.86012 | 36911 ft | 460 kts | 126° |
| 2026-04-28 00:34 | 8.43127 | 109.91278 | 36907 ft | 460 kts | 126° |
| 2026-04-28 00:35 | 8.39408 | 109.96537 | 36914 ft | 460 kts | 126° |
| 2026-04-28 00:35 | 8.35694 | 110.01787 | 36905 ft | 459 kts | 126° |
| 2026-04-28 00:36 | 8.32004 | 110.07000 | 36912 ft | 459 kts | 126° |
| 2026-04-28 00:36 | 8.28289 | 110.12246 | 36912 ft | 459 kts | 126° |
| 2026-04-28 00:37 | 8.24576 | 110.17489 | 36902 ft | 459 kts | 126° |
| 2026-04-28 00:37 | 8.20864 | 110.22729 | 36916 ft | 459 kts | 125° |
| 2026-04-28 00:38 | 8.17158 | 110.27978 | 36906 ft | 459 kts | 125° |
| 2026-04-28 00:38 | 8.13455 | 110.33231 | 36916 ft | 459 kts | 125° |
| 2026-04-28 00:39 | 8.09776 | 110.38448 | 36907 ft | 459 kts | 125° |
| 2026-04-28 00:39 | 8.06062 | 110.43711 | 36906 ft | 459 kts | 125° |
| 2026-04-28 00:40 | 8.02354 | 110.48963 | 36921 ft | 459 kts | 125° |
| 2026-04-28 00:40 | 7.98645 | 110.54215 | 36906 ft | 459 kts | 125° |
| 2026-04-28 00:41 | 7.94958 | 110.59434 | 36917 ft | 459 kts | 125° |
| 2026-04-28 00:41 | 7.91247 | 110.64684 | 36908 ft | 459 kts | 125° |
| 2026-04-28 00:42 | 7.87532 | 110.69939 | 36916 ft | 459 kts | 125° |
| 2026-04-28 00:42 | 7.83827 | 110.75178 | 36911 ft | 459 kts | 125° |
| 2026-04-28 00:43 | 7.80744 | 110.79536 | 36904 ft | 459 kts | 125° |
| 2026-04-28 00:43 | 7.77031 | 110.84782 | 36909 ft | 458 kts | 125° |
| 2026-04-28 00:44 | 7.73357 | 110.89972 | 36905 ft | 457 kts | 125° |
| 2026-04-28 00:44 | 7.69654 | 110.95201 | 36914 ft | 457 kts | 125° |
| 2026-04-28 00:45 | 7.65961 | 111.00413 | 36911 ft | 456 kts | 125° |
| 2026-04-28 00:45 | 7.62275 | 111.05615 | 36904 ft | 455 kts | 125° |
| 2026-04-28 00:46 | 7.58619 | 111.10772 | 36917 ft | 454 kts | 125° |
| 2026-04-28 00:46 | 7.54945 | 111.15952 | 36909 ft | 454 kts | 125° |
| 2026-04-28 00:47 | 7.51266 | 111.21139 | 36920 ft | 454 kts | 125° |
| 2026-04-28 00:47 | 7.47593 | 111.26315 | 36911 ft | 454 kts | 125° |
| 2026-04-28 00:48 | 7.43915 | 111.31496 | 36910 ft | 454 kts | 125° |
| 2026-04-28 00:48 | 7.40258 | 111.36647 | 36918 ft | 454 kts | 125° |
| 2026-04-28 00:49 | 7.36576 | 111.41830 | 36913 ft | 454 kts | 125° |
| 2026-04-28 00:49 | 7.32894 | 111.47013 | 36921 ft | 454 kts | 125° |
| 2026-04-28 00:50 | 7.29213 | 111.52194 | 36913 ft | 455 kts | 125° |
| 2026-04-28 00:50 | 7.25538 | 111.57360 | 36916 ft | 455 kts | 125° |
| 2026-04-28 00:51 | 7.21835 | 111.62557 | 36920 ft | 455 kts | 125° |
| 2026-04-28 00:51 | 7.18138 | 111.67746 | 36910 ft | 456 kts | 125° |
| 2026-04-28 00:52 | 7.14457 | 111.72910 | 36917 ft | 456 kts | 125° |
| 2026-04-28 00:52 | 7.10760 | 111.78099 | 36911 ft | 456 kts | 125° |
| 2026-04-28 00:53 | 7.07059 | 111.83289 | 36924 ft | 456 kts | 126° |
| 2026-04-28 00:53 | 7.03360 | 111.88477 | 36922 ft | 455 kts | 126° |
| 2026-04-28 00:54 | 6.99671 | 111.93649 | 36908 ft | 453 kts | 126° |
| 2026-04-28 00:54 | 6.95999 | 111.98794 | 36909 ft | 452 kts | 126° |
| 2026-04-28 00:55 | 6.92356 | 112.03898 | 36913 ft | 450 kts | 126° |
| 2026-04-28 00:55 | 6.88710 | 112.09005 | 36915 ft | 448 kts | 126° |
| 2026-04-28 00:56 | 6.85065 | 112.14109 | 36917 ft | 446 kts | 126° |
| 2026-04-28 00:56 | 6.81467 | 112.19144 | 36914 ft | 445 kts | 127° |
| 2026-04-28 00:57 | 6.77853 | 112.24202 | 36912 ft | 444 kts | 126° |
| 2026-04-28 00:57 | 6.74254 | 112.29237 | 36913 ft | 443 kts | 127° |
| 2026-04-28 00:58 | 6.70658 | 112.34265 | 36912 ft | 442 kts | 126° |
| 2026-04-28 00:58 | 6.67068 | 112.39285 | 36912 ft | 442 kts | 126° |
| 2026-04-28 00:59 | 6.63498 | 112.44275 | 36917 ft | 442 kts | 126° |
| 2026-04-28 00:59 | 6.59897 | 112.49307 | 36920 ft | 443 kts | 126° |
| 2026-04-28 01:00 | 6.56289 | 112.54349 | 36912 ft | 444 kts | 126° |
| 2026-04-28 01:00 | 6.52676 | 112.59395 | 36918 ft | 445 kts | 126° |
| 2026-04-28 01:01 | 6.49049 | 112.64442 | 36916 ft | 446 kts | 126° |
| 2026-04-28 01:01 | 6.45408 | 112.69500 | 36913 ft | 447 kts | 127° |
| 2026-04-28 01:02 | 6.41760 | 112.74568 | 36912 ft | 447 kts | 127° |
| 2026-04-28 01:02 | 6.38132 | 112.79610 | 36914 ft | 447 kts | 127° |
| 2026-04-28 01:03 | 6.34480 | 112.84685 | 36912 ft | 447 kts | 127° |
| 2026-04-28 01:03 | 6.30824 | 112.89764 | 36912 ft | 447 kts | 127° |
| 2026-04-28 01:04 | 6.27175 | 112.94831 | 36906 ft | 447 kts | 127° |
| 2026-04-28 01:04 | 6.23541 | 112.99877 | 36913 ft | 447 kts | 127° |
| 2026-04-28 01:05 | 6.19888 | 113.04946 | 36913 ft | 447 kts | 127° |
| 2026-04-28 01:05 | 6.16239 | 113.10010 | 36913 ft | 447 kts | 127° |
| 2026-04-28 01:06 | 6.12609 | 113.15045 | 36919 ft | 447 kts | 126° |
| 2026-04-28 01:06 | 6.08957 | 113.20111 | 36916 ft | 446 kts | 126° |
| 2026-04-28 01:07 | 6.05306 | 113.25175 | 36909 ft | 446 kts | 126° |
| 2026-04-28 01:07 | 6.01693 | 113.30182 | 36907 ft | 445 kts | 126° |
| 2026-04-28 01:08 | 5.98901 | 113.35708 | 36925 ft | 444 kts | 106° |
| 2026-04-28 01:08 | 5.98288 | 113.38752 | 36907 ft | 445 kts | 95° |
| 2026-04-28 01:08 | 5.98147 | 113.41850 | 36929 ft | 444 kts | 92° |
| 2026-04-28 01:09 | 5.98024 | 113.48069 | 36915 ft | 444 kts | 91° |
| 2026-04-28 01:09 | 5.97897 | 113.54238 | 36911 ft | 444 kts | 92° |
| 2026-04-28 01:10 | 5.97731 | 113.60457 | 36921 ft | 444 kts | 92° |
| 2026-04-28 01:10 | 5.97547 | 113.66666 | 36910 ft | 445 kts | 92° |
| 2026-04-28 01:11 | 5.97358 | 113.72893 | 36910 ft | 445 kts | 92° |
| 2026-04-28 01:11 | 5.97170 | 113.79073 | 36921 ft | 445 kts | 92° |
| 2026-04-28 01:12 | 5.96981 | 113.85291 | 36910 ft | 445 kts | 92° |
| 2026-04-28 01:12 | 5.96886 | 113.88417 | 36543 ft | 452 kts | 92° |
| 2026-04-28 01:12 | 5.96789 | 113.91580 | 36058 ft | 452 kts | 92° |
| 2026-04-28 01:12 | 5.96693 | 113.94733 | 35450 ft | 453 kts | 92° |
| 2026-04-28 01:13 | 5.96596 | 113.97901 | 34992 ft | 451 kts | 92° |
| 2026-04-28 01:13 | 5.96404 | 114.04185 | 34030 ft | 449 kts | 92° |
| 2026-04-28 01:13 | 5.96307 | 114.07316 | 33500 ft | 448 kts | 92° |
| 2026-04-28 01:14 | 5.96211 | 114.10444 | 33045 ft | 445 kts | 92° |
| 2026-04-28 01:14 | 5.96116 | 114.13512 | 32579 ft | 443 kts | 92° |
| 2026-04-28 01:14 | 5.96021 | 114.16592 | 32122 ft | 440 kts | 92° |
| 2026-04-28 01:14 | 5.95926 | 114.19662 | 31669 ft | 437 kts | 92° |
| 2026-04-28 01:15 | 5.95831 | 114.22704 | 31219 ft | 435 kts | 92° |
| 2026-04-28 01:15 | 5.95737 | 114.25736 | 30773 ft | 432 kts | 92° |
| 2026-04-28 01:15 | 5.95643 | 114.28747 | 30310 ft | 430 kts | 92° |
| 2026-04-28 01:15 | 5.95550 | 114.31750 | 29846 ft | 428 kts | 92° |
| 2026-04-28 01:16 | 5.95456 | 114.34733 | 29332 ft | 425 kts | 92° |
| 2026-04-28 01:16 | 5.95365 | 114.37656 | 28842 ft | 421 kts | 92° |
| 2026-04-28 01:16 | 5.95273 | 114.40576 | 28366 ft | 417 kts | 92° |
| 2026-04-28 01:16 | 5.95182 | 114.43479 | 27905 ft | 413 kts | 92° |
| 2026-04-28 01:17 | 5.95091 | 114.46351 | 27445 ft | 410 kts | 92° |
| 2026-04-28 01:17 | 5.95001 | 114.49203 | 26993 ft | 407 kts | 92° |
| 2026-04-28 01:17 | 5.94912 | 114.52028 | 26528 ft | 400 kts | 92° |
| 2026-04-28 01:17 | 5.94824 | 114.54795 | 26095 ft | 393 kts | 92° |
| 2026-04-28 01:18 | 5.94739 | 114.57501 | 25662 ft | 391 kts | 92° |
| 2026-04-28 01:18 | 5.94652 | 114.60230 | 25209 ft | 390 kts | 92° |
| 2026-04-28 01:18 | 5.94565 | 114.62950 | 24762 ft | 389 kts | 91° |
| 2026-04-28 01:18 | 5.94479 | 114.65667 | 24318 ft | 388 kts | 91° |
| 2026-04-28 01:19 | 5.94392 | 114.68383 | 23877 ft | 388 kts | 91° |
| 2026-04-28 01:19 | 5.94306 | 114.71088 | 23421 ft | 387 kts | 91° |
| 2026-04-28 01:19 | 5.94219 | 114.73790 | 22913 ft | 386 kts | 91° |
| 2026-04-28 01:19 | 5.94133 | 114.76477 | 22457 ft | 383 kts | 91° |
| 2026-04-28 01:20 | 5.94048 | 114.79146 | 22007 ft | 381 kts | 91° |
| 2026-04-28 01:20 | 5.93963 | 114.81796 | 21569 ft | 378 kts | 91° |
| 2026-04-28 01:20 | 5.93879 | 114.84396 | 21143 ft | 376 kts | 91° |
| 2026-04-28 01:20 | 5.93795 | 114.87014 | 20715 ft | 373 kts | 91° |
| 2026-04-28 01:21 | 5.93711 | 114.89612 | 20293 ft | 371 kts | 91° |
| 2026-04-28 01:21 | 5.93627 | 114.92203 | 19866 ft | 370 kts | 91° |
| 2026-04-28 01:21 | 5.93544 | 114.94780 | 19434 ft | 368 kts | 91° |
| 2026-04-28 01:21 | 5.93460 | 114.97348 | 19001 ft | 367 kts | 91° |
| 2026-04-28 01:22 | 5.93377 | 114.99908 | 18579 ft | 366 kts | 91° |
| 2026-04-28 01:22 | 5.93294 | 115.02467 | 18136 ft | 365 kts | 91° |
| 2026-04-28 01:22 | 5.93211 | 115.05014 | 17665 ft | 364 kts | 91° |
| 2026-04-28 01:22 | 5.93129 | 115.07548 | 17226 ft | 361 kts | 91° |
| 2026-04-28 01:23 | 5.93047 | 115.10068 | 16803 ft | 359 kts | 91° |
| 2026-04-28 01:23 | 5.92965 | 115.12564 | 16385 ft | 357 kts | 91° |
| 2026-04-28 01:23 | 5.92884 | 115.15047 | 15972 ft | 354 kts | 91° |
| 2026-04-28 01:23 | 5.92804 | 115.17483 | 15567 ft | 352 kts | 91° |
| 2026-04-28 01:24 | 5.92724 | 115.19935 | 15164 ft | 350 kts | 91° |
| 2026-04-28 01:24 | 5.92644 | 115.22378 | 14755 ft | 349 kts | 91° |
| 2026-04-28 01:24 | 5.92560 | 115.24810 | 14338 ft | 347 kts | 93° |
| 2026-04-28 01:24 | 5.92163 | 115.27176 | 14168 ft | 338 kts | 104° |
| 2026-04-28 01:25 | 5.91532 | 115.29406 | 14064 ft | 324 kts | 106° |
| 2026-04-28 01:25 | 5.90901 | 115.31523 | 13837 ft | 311 kts | 106° |
| 2026-04-28 01:25 | 5.90284 | 115.33592 | 13331 ft | 308 kts | 106° |
| 2026-04-28 01:25 | 5.89675 | 115.35660 | 12734 ft | 308 kts | 106° |
| 2026-04-28 01:26 | 5.89067 | 115.37754 | 12041 ft | 318 kts | 105° |
| 2026-04-28 01:26 | 5.88449 | 115.39904 | 11539 ft | 321 kts | 105° |
| 2026-04-28 01:26 | 5.87841 | 115.42033 | 11193 ft | 319 kts | 105° |
| 2026-04-28 01:26 | 5.87233 | 115.44171 | 10912 ft | 315 kts | 105° |
| 2026-04-28 01:27 | 5.86647 | 115.46235 | 10721 ft | 301 kts | 105° |
| 2026-04-28 01:27 | 5.86083 | 115.48226 | 10434 ft | 291 kts | 105° |
| 2026-04-28 01:27 | 5.85537 | 115.50152 | 10163 ft | 282 kts | 105° |
| 2026-04-28 01:27 | 5.85006 | 115.52031 | 9801 ft | 277 kts | 105° |
| 2026-04-28 01:28 | 5.84482 | 115.53884 | 9446 ft | 274 kts | 105° |
| 2026-04-28 01:28 | 5.83962 | 115.55722 | 9150 ft | 273 kts | 105° |
| 2026-04-28 01:28 | 5.83444 | 115.57555 | 8857 ft | 272 kts | 105° |
| 2026-04-28 01:28 | 5.82928 | 115.59377 | 8594 ft | 270 kts | 105° |
| 2026-04-28 01:29 | 5.82590 | 115.60574 | 8430 ft | 269 kts | 105° |
| 2026-04-28 01:29 | 5.82081 | 115.62372 | 8175 ft | 266 kts | 105° |
| 2026-04-28 01:29 | 5.81577 | 115.64155 | 7919 ft | 265 kts | 105° |
| 2026-04-28 01:29 | 5.81076 | 115.65923 | 7684 ft | 262 kts | 105° |
| 2026-04-28 01:30 | 5.80416 | 115.68255 | 7327 ft | 261 kts | 105° |
| 2026-04-28 01:30 | 5.79921 | 115.70004 | 7059 ft | 260 kts | 105° |
| 2026-04-28 01:30 | 5.79587 | 115.71184 | 6874 ft | 260 kts | 105° |
| 2026-04-28 01:30 | 5.79099 | 115.72909 | 6602 ft | 260 kts | 105° |
| 2026-04-28 01:31 | 5.78604 | 115.74656 | 6321 ft | 260 kts | 105° |
| 2026-04-28 01:31 | 5.78115 | 115.76384 | 6165 ft | 254 kts | 105° |
| 2026-04-28 01:31 | 5.77632 | 115.78091 | 6027 ft | 247 kts | 105° |
| 2026-04-28 01:31 | 5.77169 | 115.79725 | 5917 ft | 240 kts | 106° |
| 2026-04-28 01:32 | 5.76727 | 115.81286 | 5812 ft | 232 kts | 106° |
| 2026-04-28 01:32 | 5.76293 | 115.82816 | 5714 ft | 224 kts | 106° |
| 2026-04-28 01:32 | 5.75877 | 115.84285 | 5638 ft | 213 kts | 106° |
| 2026-04-28 01:32 | 5.75412 | 115.85694 | 5245 ft | 216 kts | 112° |
| 2026-04-28 01:33 | 5.74843 | 115.87089 | 4908 ft | 216 kts | 112° |
| 2026-04-28 01:33 | 5.74269 | 115.88489 | 4548 ft | 216 kts | 113° |
| 2026-04-28 01:33 | 5.73700 | 115.89889 | 4167 ft | 215 kts | 112° |
| 2026-04-28 01:33 | 5.73145 | 115.91266 | 3843 ft | 210 kts | 112° |
| 2026-04-28 01:34 | 5.72604 | 115.92613 | 3496 ft | 205 kts | 113° |
| 2026-04-28 01:34 | 5.72073 | 115.93932 | 3145 ft | 202 kts | 113° |
| 2026-04-28 01:34 | 5.71691 | 115.95271 | 2770 ft | 201 kts | 88° |
| 2026-04-28 01:34 | 5.72295 | 115.96446 | 2708 ft | 194 kts | 35° |
| 2026-04-28 01:35 | 5.73562 | 115.96909 | 2716 ft | 195 kts | 16° |
| 2026-04-28 01:35 | 5.74839 | 115.97325 | 2705 ft | 194 kts | 20° |
| 2026-04-28 01:35 | 5.76106 | 115.97794 | 2698 ft | 194 kts | 22° |
| 2026-04-28 01:35 | 5.77368 | 115.98286 | 2687 ft | 194 kts | 22° |
| 2026-04-28 01:36 | 5.78642 | 115.98747 | 2642 ft | 197 kts | 21° |
| 2026-04-28 01:36 | 5.79935 | 115.99249 | 2447 ft | 199 kts | 22° |
| 2026-04-28 01:36 | 5.81207 | 115.99782 | 2235 ft | 196 kts | 23° |
| 2026-04-28 01:36 | 5.82447 | 116.00310 | 1913 ft | 191 kts | 23° |
| 2026-04-28 01:37 | 5.83616 | 116.00809 | 1691 ft | 176 kts | 23° |
| 2026-04-28 01:37 | 5.84698 | 116.01269 | 1472 ft | 161 kts | 22° |
| 2026-04-28 01:37 | 5.85694 | 116.01694 | 1259 ft | 151 kts | 22° |
| 2026-04-28 01:37 | 5.86653 | 116.02102 | 1003 ft | 152 kts | 22° |
| 2026-04-28 01:38 | 5.87666 | 116.02550 | 845 ft | 161 kts | 23° |
| 2026-04-28 01:38 | 5.88699 | 116.03001 | 676 ft | 162 kts | 22° |
| 2026-04-28 01:38 | 5.89717 | 116.03421 | 528 ft | 156 kts | 21° |
| 2026-04-28 01:38 | 5.90702 | 116.03822 | 320 ft | 151 kts | 22° |
| 2026-04-28 01:39 | 5.91651 | 116.04238 | 90 ft | 151 kts | 22° |
| 2026-04-28 01:39 | 5.92574 | 116.04630 | 28 ft | 124 kts | 22° |
| 2026-04-28 01:39 | 5.93168 | 116.04880 | 28 ft | 61 kts | 23° |
| 2026-04-28 01:39 | 5.93455 | 116.05003 | 28 ft | 38 kts | 23° |
| 2026-04-28 01:40 | 5.93568 | 116.05057 | 28 ft | 10 kts | 46° |
| 2026-04-28 01:40 | 5.93546 | 116.05099 | 28 ft | 8 kts | 159° |
| 2026-04-28 01:40 | 5.93498 | 116.05121 | 28 ft | 8 kts | 155° |
| 2026-04-28 01:40 | 5.93449 | 116.05140 | 28 ft | 7 kts | 159° |
| 2026-04-28 01:41 | 5.93402 | 116.05154 | 28 ft | 7 kts | 165° |
| 2026-04-28 01:41 | 5.93355 | 116.05149 | 28 ft | 7 kts | 200° |
| 2026-04-28 01:41 | 5.93312 | 116.05130 | 28 ft | 7 kts | 204° |
| 2026-04-28 01:41 | 5.93254 | 116.05106 | 28 ft | 14 kts | 203° |
| 2026-04-28 01:42 | 5.93155 | 116.05065 | 28 ft | 15 kts | 202° |
| 2026-04-28 01:42 | 5.93058 | 116.05024 | 28 ft | 15 kts | 202° |
| 2026-04-28 01:42 | 5.92965 | 116.04986 | 28 ft | 13 kts | 202° |
| 2026-04-28 01:42 | 5.92897 | 116.04960 | 28 ft | 8 kts | 181° |
| 2026-04-28 01:43 | 5.92856 | 116.04994 | 28 ft | 8 kts | 119° |
| 2026-04-28 01:43 | 5.92828 | 116.05040 | 28 ft | 8 kts | 148° |
| 2026-04-28 01:43 | 5.92777 | 116.05033 | 28 ft | 8 kts | 202° |
| 2026-04-28 01:43 | 5.92729 | 116.05014 | 28 ft | 7 kts | 203° |
| 2026-04-28 01:44 | 5.92683 | 116.04994 | 28 ft | 7 kts | 203° |
| 2026-04-28 01:44 | 5.92635 | 116.04973 | 28 ft | 10 kts | 203° |
| 2026-04-28 01:44 | 5.92563 | 116.04943 | 28 ft | 11 kts | 202° |
| 2026-04-28 01:44 | 5.92492 | 116.04912 | 28 ft | 11 kts | 203° |
| 2026-04-28 01:45 | 5.92424 | 116.04883 | 28 ft | 11 kts | 203° |
| 2026-04-28 01:45 | 5.92379 | 116.04864 | 28 ft | 5 kts | 201° |
| 2026-04-28 01:45 | 5.92348 | 116.04855 | 28 ft | 5 kts | 185° |
| 2026-04-28 01:45 | 5.92318 | 116.04863 | 28 ft | 5 kts | 159° |
| 2026-04-28 01:46 | 5.92290 | 116.04873 | 28 ft | 4 kts | 159° |
| 2026-04-28 01:46 | 5.92279 | 116.04893 | 28 ft | 4 kts | 89° |
| 2026-04-28 01:46 | 5.92287 | 116.04916 | 28 ft | 3 kts | 68° |
| 2026-04-28 01:46 | 5.92296 | 116.04938 | 28 ft | 3 kts | 67° |
| 2026-04-28 01:47 | 5.92304 | 116.04959 | 28 ft | 1 kts | 68° |
| 2026-04-28 01:47 | 5.92308 | 116.04968 | 28 ft | 1 kts | 68° |
| 2026-04-28 01:47 | 5.92310 | 116.04973 | 28 ft | 0 kts | 68° |